| time (UTC) | temp F | wind direction | speed knots | gust knots | rain 1hr in | rain 24hr in | rain mn in | humidity % | barometer mb |
| 20260906224526 | 77 | 289 | 0.0 | 1.7 | 0.00 | 0.04 | 0.00 | 25 | 1003.7 |
| 20260906223024 | 77 | 289 | 0.0 | 1.7 | 0.00 | 0.04 | 0.00 | 24 | 1003.8 |
| 20260906221523 | 76 | 289 | 0.0 | 1.7 | 0.00 | 0.04 | 0.00 | 24 | 1004.0 |
| 20260906220021 | 73 | 289 | 0.0 | 1.7 | 0.00 | 0.04 | 0.00 | 26 | 1004.1 |
| 20260906214523 | 74 | 289 | 0.0 | 1.7 | 0.00 | 0.04 | 0.00 | 27 | 1004.2 |
| 20260906213020 | 74 | 289 | 0.0 | 1.7 | 0.00 | 0.04 | 0.00 | 26 | 1004.4 |
| 20260906211518 | 75 | 289 | 0.0 | 3.5 | 0.00 | 0.04 | 0.00 | 27 | 1004.6 |
| 20260906210017 | 76 | 282 | 0.0 | 3.5 | 0.00 | 0.04 | 0.00 | 26 | 1004.5 |
| 20260906204515 | 74 | 38 | 0.0 | 0.9 | 0.00 | 0.04 | 0.00 | 27 | 1004.7 |
| 20260906203014 | 75 | 38 | 0.0 | 1.7 | 0.00 | 0.04 | 0.00 | 26 | 1004.8 |
| 20260906201513 | 77 | 38 | 0.0 | 2.6 | 0.00 | 0.04 | 0.00 | 26 | 1004.8 |
| 20260906200011 | 77 | 76 | 0.0 | 2.6 | 0.00 | 0.04 | 0.00 | 26 | 1004.9 |
| 20260906194510 | 77 | 43 | 0.0 | 2.6 | 0.00 | 0.04 | 0.00 | 26 | 1005.0 |
| 20260906193008 | 78 | 10 | 0.0 | 1.7 | 0.00 | 0.04 | 0.00 | 27 | 1005.1 |
| 20260906191509 | 76 | 337 | 0.0 | 4.3 | 0.00 | 0.04 | 0.00 | 28 | 1005.4 |
| 20260906190003 | 75 | 270 | 0.0 | 3.5 | 0.00 | 0.04 | 0.00 | 31 | 1005.8 |
| 20260906184601 | 77 | 61 | 0.0 | 0.9 | 0.00 | 0.04 | 0.00 | 27 | 1005.8 |
| 20260906183058 | 76 | 83 | 0.0 | 2.6 | 0.00 | 0.04 | 0.00 | 30 | 1006.0 |
| 20260906181555 | 75 | 101 | 0.0 | 1.7 | 0.00 | 0.04 | 0.00 | 29 | 1006.6 |
| 20260906180104 | 75 | 112 | 0.0 | 1.7 | 0.00 | 0.04 | 0.00 | 31 | 1006.8 |
| 20260906174548 | 74 | 130 | 0.0 | 4.3 | 0.00 | 0.04 | 0.00 | 32 | 1007.3 |
| 20260906173045 | 74 | 115 | 0.0 | 3.5 | 0.00 | 0.04 | 0.00 | 33 | 1007.3 |
| 20260906171541 | 73 | 122 | 0.0 | 0.0 | 0.00 | 0.04 | 0.00 | 34 | 1007.6 |
| 20260906170049 | 72 | 110 | 0.0 | 0.0 | 0.00 | 0.04 | 0.00 | 34 | 1007.7 |
| 20260906164534 | 71 | 60 | 0.0 | 0.0 | 0.00 | 0.04 | 0.00 | 37 | 1008.0 |
| 20260906163037 | 70 | 79 | 0.0 | 0.0 | 0.00 | 0.04 | 0.00 | 42 | 1008.2 |
| 20260906161526 | 67 | 80 | 0.0 | 0.0 | 0.00 | 0.04 | 0.00 | 41 | 1008.5 |
| 20260906160021 | 63 | 134 | 0.0 | 0.0 | 0.00 | 0.04 | 0.00 | 51 | 1008.6 |
| 20260906154520 | 60 | 134 | 0.0 | 0.0 | 0.00 | 0.04 | 0.00 | 57 | 1008.6 |
| 20260906153014 | 59 | 134 | 0.0 | 0.0 | 0.00 | 0.04 | 0.00 | 57 | 1008.6 |
| 20260906151511 | 58 | 134 | 0.0 | 0.0 | 0.00 | 0.04 | 0.00 | 59 | 1008.8 |
| 20260906150018 | 57 | 134 | 0.0 | 0.0 | 0.00 | 0.04 | 0.00 | 61 | 1009.0 |
| 20260906144510 | 55 | 134 | 0.0 | 0.0 | 0.00 | 0.04 | 0.00 | 65 | 1008.8 |
| 20260906143113 | 54 | 134 | 0.0 | 0.0 | 0.00 | 0.04 | 0.00 | 67 | 1008.8 |
| 20260906141558 | 51 | 134 | 0.0 | 0.0 | 0.00 | 0.04 | 0.00 | 68 | 1008.8 |
| 20260906140056 | 50 | 134 | 0.0 | 0.0 | 0.00 | 0.04 | 0.00 | 69 | 1009.1 |
| 20260906134554 | 49 | 134 | 0.0 | 0.0 | 0.00 | 0.04 | 0.00 | 71 | 1008.9 |
| 20260906133054 | 49 | 134 | 0.0 | 0.0 | 0.00 | 0.04 | 0.00 | 72 | 1008.5 |
| 20260906131553 | 48 | 134 | 0.0 | 0.0 | 0.00 | 0.04 | 0.00 | 73 | 1008.3 |
| 20260906130051 | 48 | 134 | 0.0 | 0.0 | 0.00 | 0.04 | 0.00 | 73 | 1008.4 |
| 20260906124550 | 47 | 134 | 0.0 | 0.0 | 0.00 | 0.04 | 0.00 | 73 | 1008.2 |
| 20260906123050 | 47 | 134 | 0.0 | 0.0 | 0.00 | 0.04 | 0.00 | 74 | 1008.1 |
| 20260906121555 | 47 | 134 | 0.0 | 0.0 | 0.00 | 0.04 | 0.00 | 76 | 1008.1 |
| 20260906120107 | 47 | 134 | 0.0 | 0.0 | 0.00 | 0.04 | 0.00 | 76 | 1008.2 |
| 20260906114545 | 47 | 134 | 0.0 | 0.0 | 0.00 | 0.04 | 0.00 | 76 | 1008.3 |
| 20260906113048 | 47 | 134 | 0.0 | 0.0 | 0.00 | 0.04 | 0.00 | 74 | 1008.4 |
| 20260906111554 | 48 | 134 | 0.0 | 0.0 | 0.00 | 0.04 | 0.00 | 73 | 1008.5 |
| 20260906110043 | 48 | 134 | 0.0 | 0.0 | 0.00 | 0.04 | 0.00 | 73 | 1008.7 |
| 20260906104541 | 48 | 134 | 0.0 | 0.0 | 0.00 | 0.04 | 0.00 | 75 | 1008.6 |
| 20260906103043 | 48 | 134 | 0.0 | 0.0 | 0.00 | 0.04 | 0.00 | 77 | 1008.5 |
| 20260906101539 | 48 | 134 | 0.0 | 0.0 | 0.00 | 0.04 | 0.00 | 77 | 1008.4 |
| 20260906100037 | 48 | 134 | 0.0 | 0.0 | 0.00 | 0.04 | 0.00 | 75 | 1008.5 |
| 20260906094540 | 49 | 134 | 0.0 | 0.0 | 0.00 | 0.04 | 0.00 | 74 | 1008.5 |
| 20260906093040 | 48 | 134 | 0.0 | 0.0 | 0.00 | 0.04 | 0.00 | 74 | 1008.5 |
| 20260906091536 | 49 | 134 | 0.0 | 0.0 | 0.00 | 0.04 | 0.00 | 75 | 1008.5 |
| 20260906090035 | 49 | 134 | 0.0 | 0.0 | 0.00 | 0.04 | 0.00 | 74 | 1008.6 |
| 20260906084544 | 49 | 134 | 0.0 | 0.0 | 0.00 | 0.04 | 0.00 | 76 | 1008.6 |
| 20260906083037 | 48 | 134 | 0.0 | 0.0 | 0.00 | 0.04 | 0.00 | 77 | 1008.5 |
| 20260906081532 | 48 | 134 | 0.0 | 0.0 | 0.00 | 0.04 | 0.00 | 77 | 1008.6 |
| 20260906080034 | 50 | 134 | 0.0 | 0.0 | 0.00 | 0.04 | 0.00 | 74 | 1008.5 |
| 20260906074527 | 51 | 134 | 0.0 | 0.0 | 0.00 | 0.04 | 0.00 | 76 | 1008.5 |
| 20260906073037 | 50 | 134 | 0.0 | 0.0 | 0.00 | 0.04 | 0.00 | 77 | 1008.6 |
| 20260906071524 | 50 | 134 | 0.0 | 0.0 | 0.00 | 0.04 | 0.00 | 79 | 1008.5 |
| 20260906070021 | 51 | 134 | 0.0 | 0.0 | 0.00 | 0.04 | 0.00 | 78 | 1008.6 |
| 20260906064520 | 51 | 134 | 0.0 | 0.0 | 0.00 | 0.04 | 0.00 | 77 | 1008.6 |
| 20260906063020 | 51 | 134 | 0.0 | 0.0 | 0.00 | 0.04 | 0.00 | 77 | 1008.6 |
| 20260906061517 | 52 | 134 | 0.0 | 0.0 | 0.00 | 0.04 | 0.00 | 76 | 1008.6 |
| 20260906060014 | 52 | 134 | 0.0 | 0.0 | 0.00 | 0.04 | 0.00 | 73 | 1008.6 |
| 20260906054515 | 52 | 134 | 0.0 | 0.0 | 0.00 | 0.04 | 0.04 | 72 | 1008.3 |
| 20260906053013 | 53 | 134 | 0.0 | 0.0 | 0.00 | 0.04 | 0.04 | 74 | 1008.6 |
| 20260906051513 | 53 | 134 | 0.0 | 0.0 | 0.00 | 0.04 | 0.04 | 74 | 1008.7 |
| 20260906050013 | 54 | 134 | 0.0 | 0.0 | 0.00 | 0.04 | 0.04 | 75 | 1008.5 |
| 20260906044515 | 54 | 134 | 0.0 | 0.0 | 0.00 | 0.04 | 0.04 | 73 | 1008.9 |
| 20260906043011 | 55 | 134 | 0.0 | 0.0 | 0.00 | 0.04 | 0.04 | 72 | 1008.9 |
| 20260906041511 | 55 | 134 | 0.0 | 0.0 | 0.00 | 0.04 | 0.04 | 70 | 1009.1 |
| 20260906040014 | 56 | 132 | 0.0 | 8.7 | 0.00 | 0.04 | 0.04 | 69 | 1009.3 |
| 20260906034512 | 56 | 121 | 0.0 | 1.7 | 0.00 | 0.04 | 0.04 | 68 | 1008.9 |
| 20260906033022 | 56 | 284 | 0.0 | 1.7 | 0.00 | 0.04 | 0.04 | 69 | 1008.9 |
| 20260906031508 | 56 | 286 | 0.0 | 1.7 | 0.00 | 0.04 | 0.04 | 67 | 1008.4 |
| 20260906030009 | 56 | 290 | 0.0 | 0.0 | 0.00 | 0.04 | 0.04 | 65 | 1008.1 |
| 20260906024507 | 56 | 290 | 0.0 | 0.0 | 0.00 | 0.04 | 0.04 | 64 | 1007.8 |
| 20260906023007 | 56 | 290 | 0.0 | 0.0 | 0.00 | 0.04 | 0.04 | 63 | 1007.5 |
| 20260906021507 | 57 | 290 | 0.0 | 0.0 | 0.00 | 0.04 | 0.04 | 63 | 1007.6 |
| 20260906020007 | 57 | 290 | 0.0 | 0.0 | 0.00 | 0.04 | 0.04 | 56 | 1007.0 |
| 20260906014517 | 57 | 290 | 0.0 | 0.0 | 0.00 | 0.04 | 0.04 | 56 | 1006.3 |
| 20260906013008 | 56 | 290 | 0.0 | 0.0 | 0.00 | 0.04 | 0.04 | 59 | 1006.0 |
| 20260906011506 | 56 | 290 | 0.0 | 0.0 | 0.01 | 0.04 | 0.04 | 63 | 1005.9 |
| 20260906010005 | 57 | 290 | 0.0 | 0.0 | 0.02 | 0.04 | 0.04 | 67 | 1005.7 |
| 20260906004505 | 57 | 290 | 0.0 | 0.0 | 0.03 | 0.04 | 0.04 | 68 | 1005.7 |
| 20260906003004 | 58 | 290 | 0.0 | 0.0 | 0.04 | 0.04 | 0.04 | 69 | 1005.6 |
| 20260906001504 | 59 | 290 | 0.0 | 0.0 | 0.03 | 0.03 | 0.03 | 70 | 1005.7 |
| 20260906000003 | 60 | 290 | 0.0 | 0.0 | 0.02 | 0.02 | 0.02 | 76 | 1005.5 |
| 20260905234502 | 63 | 290 | 0.0 | 0.0 | 0.01 | 0.01 | 0.01 | 74 | 1005.7 |
| 20260905233101 | 67 | 289 | 0.0 | 0.0 | 0.00 | 0.00 | 0.00 | 48 | 1005.9 |
| 20260905231559 | 69 | 289 | 0.0 | 0.9 | 0.00 | 0.00 | 0.00 | 37 | 1005.7 |
| 20260905230058 | 69 | 326 | 0.0 | 1.7 | 0.00 | 0.00 | 0.00 | 36 | 1005.5 |
| 20260905224558 | 69 | 333 | 0.0 | 0.0 | 0.00 | 0.00 | 0.00 | 35 | 1005.5 |